sensor_id;sensor_type;location;lat;lon;timestamp;P1;durP1;ratioP1;P2;durP2;ratioP2
31537;SDS011;18147;51.952;6.146;2023-11-18T00:01:32;91.90;;;42.53;;
31537;SDS011;18147;51.952;6.146;2023-11-18T00:03:58;93.88;;;39.20;;
31537;SDS011;18147;51.952;6.146;2023-11-18T00:06:24;98.22;;;41.53;;
31537;SDS011;18147;51.952;6.146;2023-11-18T00:08:50;135.60;;;48.80;;
31537;SDS011;18147;51.952;6.146;2023-11-18T00:11:16;122.28;;;47.50;;
31537;SDS011;18147;51.952;6.146;2023-11-18T00:13:41;135.65;;;50.70;;
31537;SDS011;18147;51.952;6.146;2023-11-18T00:16:09;111.05;;;45.67;;
31537;SDS011;18147;51.952;6.146;2023-11-18T00:18:42;101.32;;;40.92;;
31537;SDS011;18147;51.952;6.146;2023-11-18T00:21:08;110.28;;;46.40;;
31537;SDS011;18147;51.952;6.146;2023-11-18T00:23:34;125.05;;;50.13;;
31537;SDS011;18147;51.952;6.146;2023-11-18T00:25:59;137.85;;;52.63;;
31537;SDS011;18147;51.952;6.146;2023-11-18T00:28:25;140.02;;;53.47;;
31537;SDS011;18147;51.952;6.146;2023-11-18T00:30:50;132.18;;;53.42;;
31537;SDS011;18147;51.952;6.146;2023-11-18T00:33:16;140.85;;;56.47;;
31537;SDS011;18147;51.952;6.146;2023-11-18T00:35:43;161.02;;;59.10;;
31537;SDS011;18147;51.952;6.146;2023-11-18T00:38:10;141.45;;;54.67;;
31537;SDS011;18147;51.952;6.146;2023-11-18T00:40:36;155.90;;;55.60;;
31537;SDS011;18147;51.952;6.146;2023-11-18T00:43:01;142.85;;;57.05;;
31537;SDS011;18147;51.952;6.146;2023-11-18T00:45:28;144.23;;;56.65;;
31537;SDS011;18147;51.952;6.146;2023-11-18T00:47:54;165.88;;;60.25;;
31537;SDS011;18147;51.952;6.146;2023-11-18T00:50:19;160.02;;;60.95;;
31537;SDS011;18147;51.952;6.146;2023-11-18T00:52:45;175.23;;;63.83;;
31537;SDS011;18147;51.952;6.146;2023-11-18T00:55:16;149.82;;;58.28;;
31537;SDS011;18147;51.952;6.146;2023-11-18T01:00:15;146.98;;;55.20;;
31537;SDS011;18147;51.952;6.146;2023-11-18T01:02:47;129.50;;;53.15;;
31537;SDS011;18147;51.952;6.146;2023-11-18T01:05:14;159.85;;;57.75;;
31537;SDS011;18147;51.952;6.146;2023-11-18T01:07:40;140.63;;;55.65;;
31537;SDS011;18147;51.952;6.146;2023-11-18T01:10:06;152.80;;;58.97;;
31537;SDS011;18147;51.952;6.146;2023-11-18T01:12:35;152.85;;;62.00;;
31537;SDS011;18147;51.952;6.146;2023-11-18T01:15:04;150.02;;;59.35;;
31537;SDS011;18147;51.952;6.146;2023-11-18T01:17:30;142.10;;;56.45;;
31537;SDS011;18147;51.952;6.146;2023-11-18T01:19:57;142.80;;;53.75;;
31537;SDS011;18147;51.952;6.146;2023-11-18T01:22:23;137.85;;;54.08;;
31537;SDS011;18147;51.952;6.146;2023-11-18T01:24:49;124.45;;;50.08;;
31537;SDS011;18147;51.952;6.146;2023-11-18T01:27:16;174.80;;;63.50;;
31537;SDS011;18147;51.952;6.146;2023-11-18T01:29:44;155.02;;;56.35;;
31537;SDS011;18147;51.952;6.146;2023-11-18T01:32:12;137.18;;;52.70;;
31537;SDS011;18147;51.952;6.146;2023-11-18T01:34:40;170.95;;;61.28;;
31537;SDS011;18147;51.952;6.146;2023-11-18T01:37:06;177.68;;;61.80;;
31537;SDS011;18147;51.952;6.146;2023-11-18T01:39:33;123.18;;;49.00;;
31537;SDS011;18147;51.952;6.146;2023-11-18T01:41:59;145.23;;;56.75;;
31537;SDS011;18147;51.952;6.146;2023-11-18T01:44:25;140.05;;;50.55;;
31537;SDS011;18147;51.952;6.146;2023-11-18T01:46:54;153.95;;;54.50;;
31537;SDS011;18147;51.952;6.146;2023-11-18T01:49:23;136.13;;;50.28;;
31537;SDS011;18147;51.952;6.146;2023-11-18T01:51:52;184.77;;;62.22;;
31537;SDS011;18147;51.952;6.146;2023-11-18T01:54:19;135.88;;;51.53;;
31537;SDS011;18147;51.952;6.146;2023-11-18T01:56:49;161.40;;;58.47;;
31537;SDS011;18147;51.952;6.146;2023-11-18T01:59:15;186.15;;;61.42;;
31537;SDS011;18147;51.952;6.146;2023-11-18T02:01:48;150.80;;;54.15;;
31537;SDS011;18147;51.952;6.146;2023-11-18T02:04:15;161.98;;;60.75;;
31537;SDS011;18147;51.952;6.146;2023-11-18T02:06:42;167.90;;;58.13;;
31537;SDS011;18147;51.952;6.146;2023-11-18T02:09:15;158.77;;;58.85;;
31537;SDS011;18147;51.952;6.146;2023-11-18T02:11:51;186.10;;;63.78;;
31537;SDS011;18147;51.952;6.146;2023-11-18T02:14:22;166.90;;;60.08;;
31537;SDS011;18147;51.952;6.146;2023-11-18T02:16:52;187.85;;;65.70;;
31537;SDS011;18147;51.952;6.146;2023-11-18T02:19:21;161.25;;;56.42;;
31537;SDS011;18147;51.952;6.146;2023-11-18T02:21:50;186.05;;;64.38;;
31537;SDS011;18147;51.952;6.146;2023-11-18T02:24:29;151.35;;;58.40;;
31537;SDS011;18147;51.952;6.146;2023-11-18T02:26:58;154.80;;;55.08;;
31537;SDS011;18147;51.952;6.146;2023-11-18T02:29:25;150.05;;;58.20;;
31537;SDS011;18147;51.952;6.146;2023-11-18T02:31:57;188.55;;;65.93;;
31537;SDS011;18147;51.952;6.146;2023-11-18T02:34:34;165.30;;;62.22;;
31537;SDS011;18147;51.952;6.146;2023-11-18T02:37:05;153.82;;;61.58;;
31537;SDS011;18147;51.952;6.146;2023-11-18T02:39:35;151.27;;;60.80;;
31537;SDS011;18147;51.952;6.146;2023-11-18T02:42:08;166.52;;;57.50;;
31537;SDS011;18147;51.952;6.146;2023-11-18T02:44:37;188.57;;;65.82;;
31537;SDS011;18147;51.952;6.146;2023-11-18T02:47:07;162.27;;;60.95;;
31537;SDS011;18147;51.952;6.146;2023-11-18T02:49:35;168.48;;;62.58;;
31537;SDS011;18147;51.952;6.146;2023-11-18T02:52:01;185.57;;;63.72;;
31537;SDS011;18147;51.952;6.146;2023-11-18T02:54:27;174.48;;;64.25;;
31537;SDS011;18147;51.952;6.146;2023-11-18T02:56:53;161.88;;;60.03;;
31537;SDS011;18147;51.952;6.146;2023-11-18T02:59:20;182.27;;;64.63;;
31537;SDS011;18147;51.952;6.146;2023-11-18T03:01:46;130.98;;;52.95;;
31537;SDS011;18147;51.952;6.146;2023-11-18T03:04:18;189.20;;;64.60;;
31537;SDS011;18147;51.952;6.146;2023-11-18T03:06:49;171.13;;;61.80;;
31537;SDS011;18147;51.952;6.146;2023-11-18T03:09:16;174.68;;;65.90;;
31537;SDS011;18147;51.952;6.146;2023-11-18T03:11:42;169.85;;;63.63;;
31537;SDS011;18147;51.952;6.146;2023-11-18T03:14:09;169.55;;;61.28;;
31537;SDS011;18147;51.952;6.146;2023-11-18T03:16:36;175.30;;;61.67;;
31537;SDS011;18147;51.952;6.146;2023-11-18T03:19:03;155.02;;;58.33;;
31537;SDS011;18147;51.952;6.146;2023-11-18T03:21:30;139.52;;;53.25;;
31537;SDS011;18147;51.952;6.146;2023-11-18T03:23:58;159.68;;;55.55;;
31537;SDS011;18147;51.952;6.146;2023-11-18T03:26:23;171.70;;;62.35;;
31537;SDS011;18147;51.952;6.146;2023-11-18T03:28:54;167.48;;;56.38;;
31537;SDS011;18147;51.952;6.146;2023-11-18T03:31:19;155.88;;;57.55;;
31537;SDS011;18147;51.952;6.146;2023-11-18T03:33:45;146.07;;;57.28;;
31537;SDS011;18147;51.952;6.146;2023-11-18T03:36:10;163.43;;;61.33;;
31537;SDS011;18147;51.952;6.146;2023-11-18T03:38:37;166.60;;;60.85;;
31537;SDS011;18147;51.952;6.146;2023-11-18T03:41:03;173.10;;;62.67;;
31537;SDS011;18147;51.952;6.146;2023-11-18T03:43:29;163.23;;;59.38;;
31537;SDS011;18147;51.952;6.146;2023-11-18T03:45:55;165.32;;;59.97;;
31537;SDS011;18147;51.952;6.146;2023-11-18T03:48:22;167.77;;;62.13;;
31537;SDS011;18147;51.952;6.146;2023-11-18T03:50:48;174.57;;;63.58;;
31537;SDS011;18147;51.952;6.146;2023-11-18T03:53:13;173.88;;;61.63;;
31537;SDS011;18147;51.952;6.146;2023-11-18T03:55:42;153.82;;;57.05;;
31537;SDS011;18147;51.952;6.146;2023-11-18T03:58:16;168.18;;;61.83;;
31537;SDS011;18147;51.952;6.146;2023-11-18T04:00:42;166.10;;;58.30;;
31537;SDS011;18147;51.952;6.146;2023-11-18T04:03:07;162.73;;;59.25;;
31537;SDS011;18147;51.952;6.146;2023-11-18T04:05:34;172.68;;;59.97;;
31537;SDS011;18147;51.952;6.146;2023-11-18T04:08:03;148.20;;;56.80;;
31537;SDS011;18147;51.952;6.146;2023-11-18T04:10:29;168.48;;;63.20;;
31537;SDS011;18147;51.952;6.146;2023-11-18T04:12:54;166.80;;;61.78;;
31537;SDS011;18147;51.952;6.146;2023-11-18T04:15:21;174.07;;;62.58;;
31537;SDS011;18147;51.952;6.146;2023-11-18T04:17:46;188.85;;;64.40;;
31537;SDS011;18147;51.952;6.146;2023-11-18T04:20:12;154.98;;;58.95;;
31537;SDS011;18147;51.952;6.146;2023-11-18T04:22:38;177.77;;;64.45;;
31537;SDS011;18147;51.952;6.146;2023-11-18T04:25:05;217.15;;;67.60;;
31537;SDS011;18147;51.952;6.146;2023-11-18T04:27:33;189.75;;;66.20;;
31537;SDS011;18147;51.952;6.146;2023-11-18T04:29:59;171.50;;;62.63;;
31537;SDS011;18147;51.952;6.146;2023-11-18T04:32:24;182.82;;;63.70;;
31537;SDS011;18147;51.952;6.146;2023-11-18T04:34:50;181.82;;;66.32;;
31537;SDS011;18147;51.952;6.146;2023-11-18T04:37:16;161.57;;;62.67;;
31537;SDS011;18147;51.952;6.146;2023-11-18T04:39:43;184.75;;;65.15;;
31537;SDS011;18147;51.952;6.146;2023-11-18T04:42:09;200.13;;;66.40;;
31537;SDS011;18147;51.952;6.146;2023-11-18T04:44:35;187.60;;;66.80;;
31537;SDS011;18147;51.952;6.146;2023-11-18T04:47:01;171.45;;;63.40;;
31537;SDS011;18147;51.952;6.146;2023-11-18T04:49:27;165.90;;;66.22;;
31537;SDS011;18147;51.952;6.146;2023-11-18T04:51:52;190.35;;;67.75;;
31537;SDS011;18147;51.952;6.146;2023-11-18T04:54:18;192.85;;;66.18;;
31537;SDS011;18147;51.952;6.146;2023-11-18T04:56:44;182.05;;;65.43;;
31537;SDS011;18147;51.952;6.146;2023-11-18T04:59:10;179.85;;;64.70;;
31537;SDS011;18147;51.952;6.146;2023-11-18T05:01:36;172.38;;;65.28;;
31537;SDS011;18147;51.952;6.146;2023-11-18T05:04:03;168.70;;;63.60;;
31537;SDS011;18147;51.952;6.146;2023-11-18T05:06:33;165.75;;;62.25;;
31537;SDS011;18147;51.952;6.146;2023-11-18T05:08:58;181.88;;;66.25;;
31537;SDS011;18147;51.952;6.146;2023-11-18T05:11:24;182.75;;;64.75;;
31537;SDS011;18147;51.952;6.146;2023-11-18T05:13:50;155.27;;;61.60;;
31537;SDS011;18147;51.952;6.146;2023-11-18T05:16:15;166.07;;;60.65;;
31537;SDS011;18147;51.952;6.146;2023-11-18T05:18:44;186.25;;;63.47;;
31537;SDS011;18147;51.952;6.146;2023-11-18T05:21:10;152.07;;;60.00;;
31537;SDS011;18147;51.952;6.146;2023-11-18T05:23:36;174.40;;;62.25;;
31537;SDS011;18147;51.952;6.146;2023-11-18T05:26:02;137.30;;;56.88;;
31537;SDS011;18147;51.952;6.146;2023-11-18T05:28:30;156.25;;;61.40;;
31537;SDS011;18147;51.952;6.146;2023-11-18T05:30:56;134.18;;;55.75;;
31537;SDS011;18147;51.952;6.146;2023-11-18T05:33:27;146.80;;;58.65;;
31537;SDS011;18147;51.952;6.146;2023-11-18T05:35:56;164.10;;;60.42;;
31537;SDS011;18147;51.952;6.146;2023-11-18T05:38:22;147.63;;;59.30;;
31537;SDS011;18147;51.952;6.146;2023-11-18T05:40:48;150.45;;;58.58;;
31537;SDS011;18147;51.952;6.146;2023-11-18T05:45:58;153.15;;;57.25;;
31537;SDS011;18147;51.952;6.146;2023-11-18T05:48:43;142.55;;;55.13;;
31537;SDS011;18147;51.952;6.146;2023-11-18T05:51:10;135.98;;;53.63;;
31537;SDS011;18147;51.952;6.146;2023-11-18T05:53:42;119.07;;;52.47;;
31537;SDS011;18147;51.952;6.146;2023-11-18T05:56:11;138.15;;;55.55;;
31537;SDS011;18147;51.952;6.146;2023-11-18T05:58:42;143.00;;;56.38;;
31537;SDS011;18147;51.952;6.146;2023-11-18T06:01:11;144.57;;;53.85;;
31537;SDS011;18147;51.952;6.146;2023-11-18T06:03:46;135.57;;;55.42;;
31537;SDS011;18147;51.952;6.146;2023-11-18T06:06:13;125.78;;;52.67;;
31537;SDS011;18147;51.952;6.146;2023-11-18T06:08:48;129.93;;;51.05;;
31537;SDS011;18147;51.952;6.146;2023-11-18T06:11:15;120.03;;;50.03;;
31537;SDS011;18147;51.952;6.146;2023-11-18T06:13:52;137.32;;;54.55;;
31537;SDS011;18147;51.952;6.146;2023-11-18T06:16:19;125.40;;;51.15;;
31537;SDS011;18147;51.952;6.146;2023-11-18T06:18:55;121.78;;;49.85;;
31537;SDS011;18147;51.952;6.146;2023-11-18T06:21:22;124.57;;;51.33;;
31537;SDS011;18147;51.952;6.146;2023-11-18T06:23:50;132.23;;;53.80;;
31537;SDS011;18147;51.952;6.146;2023-11-18T06:26:16;126.47;;;50.47;;
31537;SDS011;18147;51.952;6.146;2023-11-18T06:28:43;117.10;;;49.15;;
31537;SDS011;18147;51.952;6.146;2023-11-18T06:31:10;109.05;;;46.13;;
31537;SDS011;18147;51.952;6.146;2023-11-18T06:33:46;128.20;;;49.80;;
31537;SDS011;18147;51.952;6.146;2023-11-18T06:38:49;136.98;;;50.85;;
31537;SDS011;18147;51.952;6.146;2023-11-18T06:41:15;124.82;;;49.22;;
31537;SDS011;18147;51.952;6.146;2023-11-18T06:43:46;113.45;;;48.22;;
31537;SDS011;18147;51.952;6.146;2023-11-18T06:46:24;120.70;;;49.85;;
31537;SDS011;18147;51.952;6.146;2023-11-18T06:48:52;122.07;;;48.28;;
31537;SDS011;18147;51.952;6.146;2023-11-18T06:51:29;120.13;;;48.97;;
31537;SDS011;18147;51.952;6.146;2023-11-18T06:53:55;97.55;;;42.42;;
31537;SDS011;18147;51.952;6.146;2023-11-18T06:56:24;116.32;;;49.03;;
31537;SDS011;18147;51.952;6.146;2023-11-18T06:58:50;106.55;;;46.92;;
31537;SDS011;18147;51.952;6.146;2023-11-18T07:01:17;111.43;;;47.08;;
31537;SDS011;18147;51.952;6.146;2023-11-18T07:03:44;109.10;;;47.40;;
31537;SDS011;18147;51.952;6.146;2023-11-18T07:06:19;108.32;;;46.53;;
31537;SDS011;18147;51.952;6.146;2023-11-18T07:08:48;121.97;;;47.35;;
31537;SDS011;18147;51.952;6.146;2023-11-18T07:11:20;106.45;;;44.90;;
31537;SDS011;18147;51.952;6.146;2023-11-18T07:13:49;120.78;;;47.25;;
31537;SDS011;18147;51.952;6.146;2023-11-18T07:16:15;112.55;;;44.97;;
31537;SDS011;18147;51.952;6.146;2023-11-18T07:18:41;124.03;;;48.47;;
31537;SDS011;18147;51.952;6.146;2023-11-18T07:21:10;120.55;;;48.85;;
31537;SDS011;18147;51.952;6.146;2023-11-18T07:23:35;121.18;;;47.20;;
31537;SDS011;18147;51.952;6.146;2023-11-18T07:26:02;123.80;;;47.08;;
31537;SDS011;18147;51.952;6.146;2023-11-18T07:28:31;138.82;;;50.65;;
31537;SDS011;18147;51.952;6.146;2023-11-18T07:30:56;119.63;;;45.38;;
31537;SDS011;18147;51.952;6.146;2023-11-18T07:33:23;116.25;;;45.53;;
31537;SDS011;18147;51.952;6.146;2023-11-18T07:35:49;125.07;;;45.53;;
31537;SDS011;18147;51.952;6.146;2023-11-18T07:38:15;123.45;;;46.97;;
31537;SDS011;18147;51.952;6.146;2023-11-18T07:40:41;139.00;;;51.17;;
31537;SDS011;18147;51.952;6.146;2023-11-18T07:43:18;128.40;;;47.03;;
31537;SDS011;18147;51.952;6.146;2023-11-18T07:45:47;127.03;;;47.90;;
31537;SDS011;18147;51.952;6.146;2023-11-18T07:48:17;124.53;;;45.05;;
31537;SDS011;18147;51.952;6.146;2023-11-18T07:50:52;120.80;;;44.33;;
31537;SDS011;18147;51.952;6.146;2023-11-18T07:53:17;122.35;;;45.67;;
31537;SDS011;18147;51.952;6.146;2023-11-18T07:55:44;138.18;;;47.03;;
31537;SDS011;18147;51.952;6.146;2023-11-18T07:58:10;122.95;;;48.85;;
31537;SDS011;18147;51.952;6.146;2023-11-18T08:00:42;119.43;;;45.63;;
31537;SDS011;18147;51.952;6.146;2023-11-18T08:03:13;115.78;;;43.88;;
31537;SDS011;18147;51.952;6.146;2023-11-18T08:05:45;117.25;;;44.40;;
31537;SDS011;18147;51.952;6.146;2023-11-18T08:08:11;125.28;;;45.00;;
31537;SDS011;18147;51.952;6.146;2023-11-18T08:10:38;126.35;;;45.53;;
31537;SDS011;18147;51.952;6.146;2023-11-18T08:13:06;130.32;;;46.47;;
31537;SDS011;18147;51.952;6.146;2023-11-18T08:15:42;127.65;;;45.63;;
31537;SDS011;18147;51.952;6.146;2023-11-18T08:18:12;116.32;;;43.63;;
31537;SDS011;18147;51.952;6.146;2023-11-18T08:20:38;139.52;;;47.35;;
31537;SDS011;18147;51.952;6.146;2023-11-18T08:23:06;130.80;;;45.00;;
31537;SDS011;18147;51.952;6.146;2023-11-18T08:25:32;109.65;;;42.72;;
31537;SDS011;18147;51.952;6.146;2023-11-18T08:27:59;118.65;;;43.15;;
31537;SDS011;18147;51.952;6.146;2023-11-18T08:30:26;114.32;;;44.72;;
31537;SDS011;18147;51.952;6.146;2023-11-18T08:32:52;109.00;;;40.63;;
31537;SDS011;18147;51.952;6.146;2023-11-18T08:35:18;105.68;;;41.35;;
31537;SDS011;18147;51.952;6.146;2023-11-18T08:37:48;113.93;;;41.38;;
31537;SDS011;18147;51.952;6.146;2023-11-18T08:40:16;117.38;;;42.50;;
31537;SDS011;18147;51.952;6.146;2023-11-18T08:42:46;105.50;;;40.05;;
31537;SDS011;18147;51.952;6.146;2023-11-18T08:45:18;113.57;;;42.28;;
31537;SDS011;18147;51.952;6.146;2023-11-18T08:47:46;113.53;;;41.67;;
31537;SDS011;18147;51.952;6.146;2023-11-18T08:50:13;108.22;;;38.50;;
31537;SDS011;18147;51.952;6.146;2023-11-18T08:52:43;111.97;;;39.35;;
31537;SDS011;18147;51.952;6.146;2023-11-18T08:55:12;102.45;;;37.13;;
31537;SDS011;18147;51.952;6.146;2023-11-18T08:57:56;100.20;;;37.72;;
31537;SDS011;18147;51.952;6.146;2023-11-18T09:00:31;104.07;;;39.53;;
31537;SDS011;18147;51.952;6.146;2023-11-18T09:03:16;104.85;;;39.70;;
31537;SDS011;18147;51.952;6.146;2023-11-18T09:05:53;97.63;;;36.13;;
31537;SDS011;18147;51.952;6.146;2023-11-18T09:08:33;84.03;;;34.35;;
31537;SDS011;18147;51.952;6.146;2023-11-18T09:11:01;82.10;;;31.58;;
31537;SDS011;18147;51.952;6.146;2023-11-18T09:13:30;81.50;;;32.72;;
31537;SDS011;18147;51.952;6.146;2023-11-18T09:16:06;83.63;;;32.45;;
31537;SDS011;18147;51.952;6.146;2023-11-18T09:18:35;74.93;;;31.40;;
31537;SDS011;18147;51.952;6.146;2023-11-18T09:21:05;73.30;;;29.30;;
31537;SDS011;18147;51.952;6.146;2023-11-18T09:23:33;71.88;;;31.58;;
31537;SDS011;18147;51.952;6.146;2023-11-18T09:26:03;74.70;;;29.58;;
31537;SDS011;18147;51.952;6.146;2023-11-18T09:28:32;78.30;;;28.92;;
31537;SDS011;18147;51.952;6.146;2023-11-18T09:31:00;74.10;;;29.63;;
31537;SDS011;18147;51.952;6.146;2023-11-18T09:33:28;74.07;;;29.73;;
31537;SDS011;18147;51.952;6.146;2023-11-18T09:36:02;61.67;;;27.08;;
31537;SDS011;18147;51.952;6.146;2023-11-18T09:38:32;60.08;;;27.38;;
31537;SDS011;18147;51.952;6.146;2023-11-18T09:41:03;59.80;;;26.60;;
31537;SDS011;18147;51.952;6.146;2023-11-18T09:43:39;58.75;;;25.83;;
31537;SDS011;18147;51.952;6.146;2023-11-18T09:46:13;67.50;;;26.58;;
31537;SDS011;18147;51.952;6.146;2023-11-18T09:48:41;58.70;;;25.98;;
31537;SDS011;18147;51.952;6.146;2023-11-18T09:51:22;56.03;;;25.67;;
31537;SDS011;18147;51.952;6.146;2023-11-18T09:53:54;58.20;;;23.90;;
31537;SDS011;18147;51.952;6.146;2023-11-18T09:59:19;54.42;;;23.08;;
31537;SDS011;18147;51.952;6.146;2023-11-18T10:02:00;50.75;;;23.55;;
31537;SDS011;18147;51.952;6.146;2023-11-18T10:04:29;54.25;;;23.58;;
31537;SDS011;18147;51.952;6.146;2023-11-18T10:06:56;49.80;;;22.33;;
31537;SDS011;18147;51.952;6.146;2023-11-18T10:09:23;47.25;;;21.83;;
31537;SDS011;18147;51.952;6.146;2023-11-18T10:12:08;48.25;;;21.77;;
31537;SDS011;18147;51.952;6.146;2023-11-18T10:14:37;47.47;;;21.63;;
31537;SDS011;18147;51.952;6.146;2023-11-18T10:17:15;49.53;;;20.83;;
31537;SDS011;18147;51.952;6.146;2023-11-18T10:19:49;46.60;;;21.67;;
31537;SDS011;18147;51.952;6.146;2023-11-18T10:22:28;44.47;;;20.77;;
31537;SDS011;18147;51.952;6.146;2023-11-18T10:24:55;45.45;;;20.23;;
31537;SDS011;18147;51.952;6.146;2023-11-18T10:27:25;42.53;;;20.88;;
31537;SDS011;18147;51.952;6.146;2023-11-18T10:29:58;43.17;;;21.42;;
31537;SDS011;18147;51.952;6.146;2023-11-18T10:32:30;39.90;;;19.73;;
31537;SDS011;18147;51.952;6.146;2023-11-18T10:35:00;43.03;;;19.90;;
31537;SDS011;18147;51.952;6.146;2023-11-18T10:37:27;46.13;;;18.95;;
31537;SDS011;18147;51.952;6.146;2023-11-18T10:39:56;50.92;;;20.35;;
31537;SDS011;18147;51.952;6.146;2023-11-18T10:42:28;50.78;;;22.27;;
31537;SDS011;18147;51.952;6.146;2023-11-18T10:44:58;45.90;;;21.75;;
31537;SDS011;18147;51.952;6.146;2023-11-18T10:47:28;42.47;;;20.65;;
31537;SDS011;18147;51.952;6.146;2023-11-18T10:49:57;53.53;;;22.83;;
31537;SDS011;18147;51.952;6.146;2023-11-18T10:52:26;60.63;;;24.10;;
31537;SDS011;18147;51.952;6.146;2023-11-18T10:54:56;60.35;;;25.35;;
31537;SDS011;18147;51.952;6.146;2023-11-18T10:57:22;53.20;;;21.92;;
31537;SDS011;18147;51.952;6.146;2023-11-18T11:00:04;64.43;;;25.38;;
31537;SDS011;18147;51.952;6.146;2023-11-18T11:02:42;64.40;;;25.65;;
31537;SDS011;18147;51.952;6.146;2023-11-18T11:05:08;52.60;;;24.05;;
31537;SDS011;18147;51.952;6.146;2023-11-18T11:07:41;53.85;;;23.83;;
31537;SDS011;18147;51.952;6.146;2023-11-18T11:10:07;56.88;;;25.25;;
31537;SDS011;18147;51.952;6.146;2023-11-18T11:12:41;60.28;;;24.65;;
31537;SDS011;18147;51.952;6.146;2023-11-18T11:15:29;63.53;;;26.55;;
31537;SDS011;18147;51.952;6.146;2023-11-18T11:18:07;54.45;;;24.77;;
31537;SDS011;18147;51.952;6.146;2023-11-18T11:20:47;62.15;;;24.08;;
31537;SDS011;18147;51.952;6.146;2023-11-18T11:23:24;60.90;;;25.90;;
31537;SDS011;18147;51.952;6.146;2023-11-18T11:31:46;58.50;;;24.85;;
31537;SDS011;18147;51.952;6.146;2023-11-18T11:34:19;65.38;;;26.98;;
31537;SDS011;18147;51.952;6.146;2023-11-18T11:36:49;61.72;;;25.02;;
31537;SDS011;18147;51.952;6.146;2023-11-18T11:39:20;58.70;;;26.08;;
31537;SDS011;18147;51.952;6.146;2023-11-18T11:41:57;54.40;;;23.38;;
31537;SDS011;18147;51.952;6.146;2023-11-18T11:44:24;49.72;;;23.90;;
31537;SDS011;18147;51.952;6.146;2023-11-18T11:46:59;59.33;;;26.42;;
31537;SDS011;18147;51.952;6.146;2023-11-18T11:49:26;64.68;;;26.63;;
31537;SDS011;18147;51.952;6.146;2023-11-18T11:52:03;64.68;;;28.65;;
31537;SDS011;18147;51.952;6.146;2023-11-18T11:55:00;53.05;;;24.45;;
31537;SDS011;18147;51.952;6.146;2023-11-18T11:57:38;58.90;;;23.92;;
31537;SDS011;18147;51.952;6.146;2023-11-18T12:00:11;51.85;;;21.60;;
31537;SDS011;18147;51.952;6.146;2023-11-18T12:05:17;57.90;;;22.85;;
31537;SDS011;18147;51.952;6.146;2023-11-18T12:07:50;45.92;;;20.30;;
31537;SDS011;18147;51.952;6.146;2023-11-18T12:10:20;54.00;;;22.92;;
31537;SDS011;18147;51.952;6.146;2023-11-18T12:12:50;45.40;;;21.50;;
31537;SDS011;18147;51.952;6.146;2023-11-18T12:15:54;44.72;;;20.17;;
31537;SDS011;18147;51.952;6.146;2023-11-18T12:18:29;49.53;;;21.23;;
31537;SDS011;18147;51.952;6.146;2023-11-18T12:20:57;45.53;;;20.42;;
31537;SDS011;18147;51.952;6.146;2023-11-18T12:23:27;47.20;;;19.88;;
31537;SDS011;18147;51.952;6.146;2023-11-18T12:25:53;51.22;;;21.35;;
31537;SDS011;18147;51.952;6.146;2023-11-18T12:28:21;42.90;;;17.98;;
31537;SDS011;18147;51.952;6.146;2023-11-18T12:31:01;43.83;;;18.95;;
31537;SDS011;18147;51.952;6.146;2023-11-18T12:42:07;44.60;;;19.48;;
31537;SDS011;18147;51.952;6.146;2023-11-18T12:47:51;33.13;;;15.60;;
31537;SDS011;18147;51.952;6.146;2023-11-18T12:50:21;31.45;;;15.57;;
31537;SDS011;18147;51.952;6.146;2023-11-18T12:52:53;29.83;;;13.18;;
31537;SDS011;18147;51.952;6.146;2023-11-18T12:55:19;28.98;;;14.73;;
31537;SDS011;18147;51.952;6.146;2023-11-18T12:57:46;32.90;;;14.73;;
31537;SDS011;18147;51.952;6.146;2023-11-18T13:00:13;33.05;;;13.95;;
31537;SDS011;18147;51.952;6.146;2023-11-18T13:02:55;27.95;;;13.73;;
31537;SDS011;18147;51.952;6.146;2023-11-18T13:05:22;29.83;;;13.40;;
31537;SDS011;18147;51.952;6.146;2023-11-18T13:07:55;29.98;;;13.00;;
31537;SDS011;18147;51.952;6.146;2023-11-18T13:10:21;31.88;;;13.95;;
31537;SDS011;18147;51.952;6.146;2023-11-18T13:12:47;27.55;;;13.07;;
31537;SDS011;18147;51.952;6.146;2023-11-18T13:15:15;27.52;;;11.18;;
31537;SDS011;18147;51.952;6.146;2023-11-18T13:17:56;28.23;;;12.27;;
31537;SDS011;18147;51.952;6.146;2023-11-18T13:20:31;28.23;;;12.40;;
31537;SDS011;18147;51.952;6.146;2023-11-18T13:23:00;25.38;;;10.98;;
31537;SDS011;18147;51.952;6.146;2023-11-18T13:25:37;22.52;;;11.02;;
31537;SDS011;18147;51.952;6.146;2023-11-18T13:28:09;29.95;;;11.85;;
31537;SDS011;18147;51.952;6.146;2023-11-18T13:30:35;23.33;;;11.00;;
31537;SDS011;18147;51.952;6.146;2023-11-18T13:33:01;23.35;;;10.27;;
31537;SDS011;18147;51.952;6.146;2023-11-18T13:35:28;27.08;;;11.23;;
31537;SDS011;18147;51.952;6.146;2023-11-18T13:37:54;22.55;;;10.73;;
31537;SDS011;18147;51.952;6.146;2023-11-18T13:40:20;26.88;;;12.13;;
31537;SDS011;18147;51.952;6.146;2023-11-18T13:42:45;23.10;;;11.35;;
31537;SDS011;18147;51.952;6.146;2023-11-18T13:45:15;21.05;;;11.90;;
31537;SDS011;18147;51.952;6.146;2023-11-18T13:47:51;22.40;;;11.85;;
31537;SDS011;18147;51.952;6.146;2023-11-18T13:50:18;28.27;;;12.18;;
31537;SDS011;18147;51.952;6.146;2023-11-18T13:52:44;32.88;;;13.68;;
31537;SDS011;18147;51.952;6.146;2023-11-18T13:55:12;22.88;;;12.40;;
31537;SDS011;18147;51.952;6.146;2023-11-18T13:57:52;25.95;;;12.13;;
31537;SDS011;18147;51.952;6.146;2023-11-18T14:00:21;31.30;;;13.30;;
31537;SDS011;18147;51.952;6.146;2023-11-18T14:02:48;27.67;;;12.40;;
31537;SDS011;18147;51.952;6.146;2023-11-18T14:05:17;24.40;;;13.07;;
31537;SDS011;18147;51.952;6.146;2023-11-18T14:07:47;34.05;;;14.30;;
31537;SDS011;18147;51.952;6.146;2023-11-18T14:10:13;26.88;;;12.40;;
31537;SDS011;18147;51.952;6.146;2023-11-18T14:12:58;34.08;;;13.40;;
31537;SDS011;18147;51.952;6.146;2023-11-18T14:15:28;27.20;;;13.55;;
31537;SDS011;18147;51.952;6.146;2023-11-18T14:17:55;31.13;;;12.75;;
31537;SDS011;18147;51.952;6.146;2023-11-18T14:20:22;27.95;;;12.05;;
31537;SDS011;18147;51.952;6.146;2023-11-18T14:22:48;21.00;;;10.43;;
31537;SDS011;18147;51.952;6.146;2023-11-18T14:25:14;31.10;;;12.32;;
31537;SDS011;18147;51.952;6.146;2023-11-18T14:27:40;22.80;;;12.48;;
31537;SDS011;18147;51.952;6.146;2023-11-18T14:30:15;21.67;;;12.05;;
31537;SDS011;18147;51.952;6.146;2023-11-18T14:32:42;23.10;;;11.23;;
31537;SDS011;18147;51.952;6.146;2023-11-18T14:35:08;21.13;;;10.30;;
31537;SDS011;18147;51.952;6.146;2023-11-18T14:37:38;19.17;;;10.25;;
31537;SDS011;18147;51.952;6.146;2023-11-18T14:42:40;21.42;;;10.18;;
31537;SDS011;18147;51.952;6.146;2023-11-18T14:45:13;21.38;;;11.20;;
31537;SDS011;18147;51.952;6.146;2023-11-18T14:47:43;19.88;;;10.85;;
31537;SDS011;18147;51.952;6.146;2023-11-18T14:50:11;22.98;;;11.77;;
31537;SDS011;18147;51.952;6.146;2023-11-18T14:52:44;22.38;;;10.98;;
31537;SDS011;18147;51.952;6.146;2023-11-18T14:55:11;21.77;;;11.70;;
31537;SDS011;18147;51.952;6.146;2023-11-18T14:57:40;21.40;;;10.85;;
31537;SDS011;18147;51.952;6.146;2023-11-18T15:02:52;19.90;;;9.80;;